Allen Springs, Kentucky
Current Conditions -  °F | °C
As of 1:53 PM on Thursday 29 Jan 2015 (Local Time) from KBWG Reporting Station
Overcast Overcast  
Wind Chill: 52°   Ceiling: 4800
Heat Index: 52°   Visibility: 9mi
Dew Point: 38°   Wind: 16mph
Humidity: 59%   Direction: 300°WNW
Pressure: 30.03"   Gusts: 25mph
Location:  36.8592°N, 86.3531°W
Report Text: KBWG 291953Z AUTO 30014G22KT 9SM FEW029 OVC048 11/03 A3003 RMK AO2 SLP169 T01110033
Loading
Personal Weather Stations






























Interactive Weather Map New forecast layout! Learn more

10-Day Weather Forecast

Advertisements
Track Severe Weather on mobile